sensor_id;sensor_type;location;lat;lon;timestamp;P1;durP1;ratioP1;P2;durP2;ratioP2
44832;SDS011;30569;51.252;9.830;2023-10-08T00:01:07;8.07;;;3.80;;
44832;SDS011;30569;51.252;9.830;2023-10-08T00:03:36;10.00;;;3.58;;
44832;SDS011;30569;51.252;9.830;2023-10-08T00:06:03;14.35;;;3.85;;
44832;SDS011;30569;51.252;9.830;2023-10-08T00:08:32;9.48;;;3.75;;
44832;SDS011;30569;51.252;9.830;2023-10-08T00:10:58;12.30;;;3.78;;
44832;SDS011;30569;51.252;9.830;2023-10-08T00:13:31;13.10;;;4.22;;
44832;SDS011;30569;51.252;9.830;2023-10-08T00:16:01;12.98;;;3.95;;
44832;SDS011;30569;51.252;9.830;2023-10-08T00:18:26;11.23;;;4.22;;
44832;SDS011;30569;51.252;9.830;2023-10-08T00:20:52;12.85;;;4.00;;
44832;SDS011;30569;51.252;9.830;2023-10-08T00:23:22;10.95;;;3.97;;
44832;SDS011;30569;51.252;9.830;2023-10-08T00:25:51;10.35;;;3.92;;
44832;SDS011;30569;51.252;9.830;2023-10-08T00:28:17;13.63;;;4.72;;
44832;SDS011;30569;51.252;9.830;2023-10-08T00:30:43;11.55;;;4.10;;
44832;SDS011;30569;51.252;9.830;2023-10-08T00:33:09;10.55;;;4.13;;
44832;SDS011;30569;51.252;9.830;2023-10-08T00:35:40;12.50;;;4.68;;
44832;SDS011;30569;51.252;9.830;2023-10-08T00:38:08;10.48;;;4.05;;
44832;SDS011;30569;51.252;9.830;2023-10-08T00:40:40;11.90;;;4.45;;
44832;SDS011;30569;51.252;9.830;2023-10-08T00:43:10;12.77;;;4.28;;
44832;SDS011;30569;51.252;9.830;2023-10-08T00:45:59;13.23;;;4.55;;
44832;SDS011;30569;51.252;9.830;2023-10-08T00:48:29;12.73;;;4.50;;
44832;SDS011;30569;51.252;9.830;2023-10-08T00:51:01;10.02;;;4.10;;
44832;SDS011;30569;51.252;9.830;2023-10-08T00:53:46;12.60;;;4.10;;
44832;SDS011;30569;51.252;9.830;2023-10-08T00:56:34;14.45;;;4.70;;
44832;SDS011;30569;51.252;9.830;2023-10-08T00:59:25;9.88;;;4.32;;
44832;SDS011;30569;51.252;9.830;2023-10-08T01:01:51;10.80;;;4.32;;
44832;SDS011;30569;51.252;9.830;2023-10-08T01:04:38;10.77;;;4.78;;
44832;SDS011;30569;51.252;9.830;2023-10-08T01:07:05;14.45;;;4.97;;
44832;SDS011;30569;51.252;9.830;2023-10-08T01:09:43;14.13;;;5.03;;
44832;SDS011;30569;51.252;9.830;2023-10-08T01:14:54;12.93;;;4.93;;
44832;SDS011;30569;51.252;9.830;2023-10-08T01:17:29;10.38;;;4.05;;
44832;SDS011;30569;51.252;9.830;2023-10-08T01:19:57;13.23;;;4.80;;
44832;SDS011;30569;51.252;9.830;2023-10-08T01:22:33;11.90;;;4.82;;
44832;SDS011;30569;51.252;9.830;2023-10-08T01:24:58;12.02;;;5.28;;
44832;SDS011;30569;51.252;9.830;2023-10-08T01:27:29;12.50;;;5.38;;
44832;SDS011;30569;51.252;9.830;2023-10-08T01:29:59;12.30;;;5.10;;
44832;SDS011;30569;51.252;9.830;2023-10-08T01:32:45;11.98;;;5.65;;
44832;SDS011;30569;51.252;9.830;2023-10-08T01:35:11;15.05;;;5.30;;
44832;SDS011;30569;51.252;9.830;2023-10-08T01:37:48;16.25;;;5.43;;
44832;SDS011;30569;51.252;9.830;2023-10-08T01:40:21;16.17;;;5.10;;
44832;SDS011;30569;51.252;9.830;2023-10-08T01:42:50;11.07;;;5.03;;
44832;SDS011;30569;51.252;9.830;2023-10-08T01:45:19;13.63;;;5.53;;
44832;SDS011;30569;51.252;9.830;2023-10-08T01:47:45;14.52;;;4.75;;
44832;SDS011;30569;51.252;9.830;2023-10-08T01:50:16;15.52;;;5.55;;
44832;SDS011;30569;51.252;9.830;2023-10-08T01:52:48;16.38;;;5.88;;
44832;SDS011;30569;51.252;9.830;2023-10-08T01:55:13;11.90;;;5.20;;
44832;SDS011;30569;51.252;9.830;2023-10-08T01:57:43;12.50;;;4.88;;
44832;SDS011;30569;51.252;9.830;2023-10-08T02:00:13;15.63;;;5.60;;
44832;SDS011;30569;51.252;9.830;2023-10-08T02:02:40;12.18;;;5.38;;
44832;SDS011;30569;51.252;9.830;2023-10-08T02:05:08;14.10;;;5.55;;
44832;SDS011;30569;51.252;9.830;2023-10-08T02:07:34;15.05;;;6.13;;
44832;SDS011;30569;51.252;9.830;2023-10-08T02:10:00;15.05;;;6.47;;
44832;SDS011;30569;51.252;9.830;2023-10-08T02:12:25;12.57;;;5.95;;
44832;SDS011;30569;51.252;9.830;2023-10-08T02:14:51;12.32;;;6.05;;
44832;SDS011;30569;51.252;9.830;2023-10-08T02:17:16;16.88;;;6.68;;
44832;SDS011;30569;51.252;9.830;2023-10-08T02:19:42;16.02;;;6.68;;
44832;SDS011;30569;51.252;9.830;2023-10-08T02:22:08;15.90;;;6.63;;
44832;SDS011;30569;51.252;9.830;2023-10-08T02:24:37;14.35;;;7.00;;
44832;SDS011;30569;51.252;9.830;2023-10-08T02:27:02;16.20;;;6.72;;
44832;SDS011;30569;51.252;9.830;2023-10-08T02:29:29;15.32;;;7.05;;
44832;SDS011;30569;51.252;9.830;2023-10-08T02:31:56;15.00;;;6.00;;
44832;SDS011;30569;51.252;9.830;2023-10-08T02:34:22;15.10;;;7.00;;
44832;SDS011;30569;51.252;9.830;2023-10-08T02:36:48;16.08;;;6.88;;
44832;SDS011;30569;51.252;9.830;2023-10-08T02:39:13;17.63;;;6.50;;
44832;SDS011;30569;51.252;9.830;2023-10-08T02:41:45;17.77;;;6.68;;
44832;SDS011;30569;51.252;9.830;2023-10-08T02:44:15;18.23;;;7.47;;
44832;SDS011;30569;51.252;9.830;2023-10-08T02:46:44;21.50;;;7.95;;
44832;SDS011;30569;51.252;9.830;2023-10-08T02:49:12;20.10;;;7.18;;
44832;SDS011;30569;51.252;9.830;2023-10-08T02:51:48;20.25;;;7.20;;
44832;SDS011;30569;51.252;9.830;2023-10-08T02:54:19;18.58;;;6.60;;
44832;SDS011;30569;51.252;9.830;2023-10-08T02:56:51;22.75;;;6.35;;
44832;SDS011;30569;51.252;9.830;2023-10-08T02:59:22;15.57;;;7.22;;
44832;SDS011;30569;51.252;9.830;2023-10-08T03:01:48;17.48;;;7.35;;
44832;SDS011;30569;51.252;9.830;2023-10-08T03:04:20;20.53;;;7.03;;
44832;SDS011;30569;51.252;9.830;2023-10-08T03:06:48;16.63;;;6.90;;
44832;SDS011;30569;51.252;9.830;2023-10-08T03:09:15;17.38;;;6.65;;
44832;SDS011;30569;51.252;9.830;2023-10-08T03:11:46;14.50;;;6.57;;
44832;SDS011;30569;51.252;9.830;2023-10-08T03:14:15;19.30;;;7.70;;
44832;SDS011;30569;51.252;9.830;2023-10-08T03:16:51;17.30;;;7.57;;
44832;SDS011;30569;51.252;9.830;2023-10-08T03:19:18;16.08;;;6.32;;
44832;SDS011;30569;51.252;9.830;2023-10-08T03:21:46;15.70;;;7.15;;
44832;SDS011;30569;51.252;9.830;2023-10-08T03:24:19;19.65;;;7.60;;
44832;SDS011;30569;51.252;9.830;2023-10-08T03:27:14;18.63;;;6.93;;
44832;SDS011;30569;51.252;9.830;2023-10-08T03:29:48;21.90;;;7.97;;
44832;SDS011;30569;51.252;9.830;2023-10-08T03:32:14;21.45;;;7.70;;
44832;SDS011;30569;51.252;9.830;2023-10-08T03:34:43;16.67;;;7.45;;
44832;SDS011;30569;51.252;9.830;2023-10-08T03:37:11;19.20;;;7.78;;
44832;SDS011;30569;51.252;9.830;2023-10-08T03:39:44;20.27;;;7.60;;
44832;SDS011;30569;51.252;9.830;2023-10-08T03:42:20;19.52;;;7.45;;
44832;SDS011;30569;51.252;9.830;2023-10-08T03:44:47;20.23;;;7.22;;
44832;SDS011;30569;51.252;9.830;2023-10-08T03:47:17;15.98;;;6.85;;
44832;SDS011;30569;51.252;9.830;2023-10-08T03:49:52;21.20;;;8.20;;
44832;SDS011;30569;51.252;9.830;2023-10-08T03:52:19;19.20;;;7.68;;
44832;SDS011;30569;51.252;9.830;2023-10-08T03:54:50;18.73;;;6.93;;
44832;SDS011;30569;51.252;9.830;2023-10-08T03:57:30;15.57;;;8.05;;
44832;SDS011;30569;51.252;9.830;2023-10-08T04:00:06;16.35;;;7.25;;
44832;SDS011;30569;51.252;9.830;2023-10-08T04:02:36;16.48;;;7.10;;
44832;SDS011;30569;51.252;9.830;2023-10-08T04:05:11;17.33;;;7.30;;
44832;SDS011;30569;51.252;9.830;2023-10-08T04:07:44;17.45;;;7.22;;
44832;SDS011;30569;51.252;9.830;2023-10-08T04:10:29;17.38;;;7.18;;
44832;SDS011;30569;51.252;9.830;2023-10-08T04:13:06;14.73;;;6.93;;
44832;SDS011;30569;51.252;9.830;2023-10-08T04:15:35;15.88;;;7.93;;
44832;SDS011;30569;51.252;9.830;2023-10-08T04:18:05;20.02;;;8.50;;
44832;SDS011;30569;51.252;9.830;2023-10-08T04:20:32;16.80;;;7.85;;
44832;SDS011;30569;51.252;9.830;2023-10-08T04:22:58;16.17;;;7.03;;
44832;SDS011;30569;51.252;9.830;2023-10-08T04:25:28;20.20;;;8.23;;
44832;SDS011;30569;51.252;9.830;2023-10-08T04:27:55;15.95;;;7.50;;
44832;SDS011;30569;51.252;9.830;2023-10-08T04:30:23;18.42;;;8.57;;
44832;SDS011;30569;51.252;9.830;2023-10-08T04:32:57;17.90;;;8.10;;
44832;SDS011;30569;51.252;9.830;2023-10-08T04:35:36;8.98;;;3.40;;
44832;SDS011;30569;51.252;9.830;2023-10-08T04:38:09;10.57;;;3.03;;
44832;SDS011;30569;51.252;9.830;2023-10-08T04:40:36;5.22;;;2.15;;
44832;SDS011;30569;51.252;9.830;2023-10-08T04:43:13;9.48;;;2.65;;
44832;SDS011;30569;51.252;9.830;2023-10-08T04:45:40;5.25;;;2.30;;
44832;SDS011;30569;51.252;9.830;2023-10-08T04:48:06;8.43;;;2.35;;
44832;SDS011;30569;51.252;9.830;2023-10-08T04:50:37;5.38;;;2.22;;
44832;SDS011;30569;51.252;9.830;2023-10-08T04:53:03;5.00;;;2.70;;
44832;SDS011;30569;51.252;9.830;2023-10-08T04:55:36;4.25;;;2.05;;
44832;SDS011;30569;51.252;9.830;2023-10-08T04:58:07;5.95;;;2.40;;
44832;SDS011;30569;51.252;9.830;2023-10-08T05:00:44;5.00;;;2.60;;
44832;SDS011;30569;51.252;9.830;2023-10-08T05:03:19;4.10;;;2.15;;
44832;SDS011;30569;51.252;9.830;2023-10-08T05:05:47;4.22;;;1.88;;
44832;SDS011;30569;51.252;9.830;2023-10-08T05:08:49;4.47;;;2.00;;
44832;SDS011;30569;51.252;9.830;2023-10-08T05:11:24;3.35;;;1.70;;
44832;SDS011;30569;51.252;9.830;2023-10-08T05:14:01;4.13;;;1.63;;
44832;SDS011;30569;51.252;9.830;2023-10-08T05:16:41;4.10;;;1.85;;
44832;SDS011;30569;51.252;9.830;2023-10-08T05:22:13;3.95;;;1.83;;
44832;SDS011;30569;51.252;9.830;2023-10-08T05:24:48;4.05;;;2.00;;
44832;SDS011;30569;51.252;9.830;2023-10-08T05:27:34;6.00;;;1.88;;
44832;SDS011;30569;51.252;9.830;2023-10-08T05:30:22;2.88;;;1.27;;
44832;SDS011;30569;51.252;9.830;2023-10-08T05:32:57;3.70;;;1.50;;
44832;SDS011;30569;51.252;9.830;2023-10-08T05:35:29;3.63;;;1.58;;
44832;SDS011;30569;51.252;9.830;2023-10-08T05:37:58;2.78;;;1.40;;
44832;SDS011;30569;51.252;9.830;2023-10-08T05:40:38;2.53;;;1.10;;
44832;SDS011;30569;51.252;9.830;2023-10-08T05:43:23;2.65;;;0.90;;
44832;SDS011;30569;51.252;9.830;2023-10-08T05:46:04;1.45;;;0.80;;
44832;SDS011;30569;51.252;9.830;2023-10-08T05:48:49;3.70;;;0.98;;
44832;SDS011;30569;51.252;9.830;2023-10-08T05:51:27;2.55;;;0.90;;
44832;SDS011;30569;51.252;9.830;2023-10-08T05:54:21;2.03;;;1.00;;
44832;SDS011;30569;51.252;9.830;2023-10-08T05:56:57;2.78;;;1.30;;
44832;SDS011;30569;51.252;9.830;2023-10-08T05:59:36;2.33;;;1.10;;
44832;SDS011;30569;51.252;9.830;2023-10-08T06:02:18;3.20;;;1.20;;
44832;SDS011;30569;51.252;9.830;2023-10-08T06:07:35;2.40;;;1.00;;
44832;SDS011;30569;51.252;9.830;2023-10-08T06:10:26;2.28;;;1.00;;
44832;SDS011;30569;51.252;9.830;2023-10-08T06:12:58;2.25;;;1.10;;
44832;SDS011;30569;51.252;9.830;2023-10-08T06:15:36;2.60;;;1.20;;
44832;SDS011;30569;51.252;9.830;2023-10-08T06:18:30;3.20;;;1.20;;
44832;SDS011;30569;51.252;9.830;2023-10-08T06:23:27;2.83;;;1.20;;
44832;SDS011;30569;51.252;9.830;2023-10-08T06:26:00;2.80;;;1.33;;
44832;SDS011;30569;51.252;9.830;2023-10-08T06:28:30;2.78;;;1.00;;
44832;SDS011;30569;51.252;9.830;2023-10-08T06:31:00;4.00;;;1.13;;
44832;SDS011;30569;51.252;9.830;2023-10-08T06:33:27;2.60;;;1.10;;
44832;SDS011;30569;51.252;9.830;2023-10-08T06:36:02;1.63;;;0.90;;
44832;SDS011;30569;51.252;9.830;2023-10-08T06:38:34;1.58;;;0.88;;
44832;SDS011;30569;51.252;9.830;2023-10-08T06:41:00;2.17;;;1.00;;
44832;SDS011;30569;51.252;9.830;2023-10-08T06:43:34;1.90;;;1.00;;
44832;SDS011;30569;51.252;9.830;2023-10-08T06:46:01;2.22;;;0.90;;
44832;SDS011;30569;51.252;9.830;2023-10-08T06:48:28;2.60;;;1.05;;
44832;SDS011;30569;51.252;9.830;2023-10-08T06:50:54;1.73;;;0.90;;
44832;SDS011;30569;51.252;9.830;2023-10-08T06:53:23;2.33;;;0.98;;
44832;SDS011;30569;51.252;9.830;2023-10-08T06:55:49;5.35;;;1.33;;
44832;SDS011;30569;51.252;9.830;2023-10-08T06:58:22;2.78;;;0.90;;
44832;SDS011;30569;51.252;9.830;2023-10-08T07:00:49;2.63;;;1.20;;
44832;SDS011;30569;51.252;9.830;2023-10-08T07:03:15;2.08;;;1.00;;
44832;SDS011;30569;51.252;9.830;2023-10-08T07:05:43;2.78;;;1.10;;
44832;SDS011;30569;51.252;9.830;2023-10-08T07:08:23;3.78;;;1.30;;
44832;SDS011;30569;51.252;9.830;2023-10-08T07:10:50;2.75;;;1.23;;
44832;SDS011;30569;51.252;9.830;2023-10-08T07:13:17;4.30;;;1.23;;
44832;SDS011;30569;51.252;9.830;2023-10-08T07:15:44;4.28;;;1.40;;
44832;SDS011;30569;51.252;9.830;2023-10-08T07:18:11;4.57;;;1.73;;
44832;SDS011;30569;51.252;9.830;2023-10-08T07:20:40;5.00;;;1.45;;
44832;SDS011;30569;51.252;9.830;2023-10-08T07:23:10;5.45;;;1.50;;
44832;SDS011;30569;51.252;9.830;2023-10-08T07:25:46;5.55;;;1.33;;
44832;SDS011;30569;51.252;9.830;2023-10-08T07:28:17;3.95;;;1.33;;
44832;SDS011;30569;51.252;9.830;2023-10-08T07:30:44;3.38;;;1.30;;
44832;SDS011;30569;51.252;9.830;2023-10-08T07:33:10;4.10;;;1.38;;
44832;SDS011;30569;51.252;9.830;2023-10-08T07:35:49;4.90;;;1.42;;
44832;SDS011;30569;51.252;9.830;2023-10-08T07:38:22;4.95;;;1.40;;
44832;SDS011;30569;51.252;9.830;2023-10-08T07:40:52;4.47;;;1.50;;
44832;SDS011;30569;51.252;9.830;2023-10-08T07:43:19;5.72;;;1.55;;
44832;SDS011;30569;51.252;9.830;2023-10-08T07:45:45;3.92;;;1.40;;
44832;SDS011;30569;51.252;9.830;2023-10-08T07:48:11;3.83;;;1.38;;
44832;SDS011;30569;51.252;9.830;2023-10-08T07:50:42;4.35;;;1.38;;
44832;SDS011;30569;51.252;9.830;2023-10-08T07:53:11;6.40;;;1.40;;
44832;SDS011;30569;51.252;9.830;2023-10-08T07:55:43;4.68;;;1.33;;
44832;SDS011;30569;51.252;9.830;2023-10-08T07:58:10;4.85;;;1.60;;
44832;SDS011;30569;51.252;9.830;2023-10-08T08:00:36;5.25;;;1.50;;
44832;SDS011;30569;51.252;9.830;2023-10-08T08:03:04;5.85;;;2.05;;
44832;SDS011;30569;51.252;9.830;2023-10-08T08:05:30;9.05;;;3.22;;
44832;SDS011;30569;51.252;9.830;2023-10-08T08:07:55;7.40;;;1.65;;
44832;SDS011;30569;51.252;9.830;2023-10-08T08:10:23;7.55;;;2.40;;
44832;SDS011;30569;51.252;9.830;2023-10-08T08:12:49;4.50;;;1.83;;
44832;SDS011;30569;51.252;9.830;2023-10-08T08:15:19;5.15;;;2.13;;
44832;SDS011;30569;51.252;9.830;2023-10-08T08:17:45;5.43;;;2.10;;
44832;SDS011;30569;51.252;9.830;2023-10-08T08:20:13;3.80;;;1.33;;
44832;SDS011;30569;51.252;9.830;2023-10-08T08:22:59;3.70;;;1.38;;
44832;SDS011;30569;51.252;9.830;2023-10-08T08:25:36;4.78;;;1.35;;
44832;SDS011;30569;51.252;9.830;2023-10-08T08:28:08;6.20;;;1.70;;
44832;SDS011;30569;51.252;9.830;2023-10-08T08:30:41;5.30;;;1.98;;
44832;SDS011;30569;51.252;9.830;2023-10-08T08:33:11;5.22;;;1.98;;
44832;SDS011;30569;51.252;9.830;2023-10-08T08:35:47;4.85;;;1.60;;
44832;SDS011;30569;51.252;9.830;2023-10-08T08:38:22;5.95;;;2.03;;
44832;SDS011;30569;51.252;9.830;2023-10-08T08:40:49;5.40;;;1.70;;
44832;SDS011;30569;51.252;9.830;2023-10-08T08:43:15;4.32;;;1.40;;
44832;SDS011;30569;51.252;9.830;2023-10-08T08:45:41;6.35;;;1.70;;
44832;SDS011;30569;51.252;9.830;2023-10-08T08:48:08;4.32;;;1.58;;
44832;SDS011;30569;51.252;9.830;2023-10-08T08:50:34;4.43;;;1.50;;
44832;SDS011;30569;51.252;9.830;2023-10-08T08:53:02;5.47;;;1.30;;
44832;SDS011;30569;51.252;9.830;2023-10-08T08:55:29;4.78;;;1.50;;
44832;SDS011;30569;51.252;9.830;2023-10-08T08:57:57;6.70;;;2.20;;
44832;SDS011;30569;51.252;9.830;2023-10-08T09:00:24;4.53;;;1.40;;
44832;SDS011;30569;51.252;9.830;2023-10-08T09:02:54;6.68;;;1.70;;
44832;SDS011;30569;51.252;9.830;2023-10-08T09:05:20;3.90;;;1.30;;
44832;SDS011;30569;51.252;9.830;2023-10-08T09:07:57;4.18;;;1.30;;
44832;SDS011;30569;51.252;9.830;2023-10-08T09:10:24;6.40;;;1.60;;
44832;SDS011;30569;51.252;9.830;2023-10-08T09:12:54;4.75;;;1.48;;
44832;SDS011;30569;51.252;9.830;2023-10-08T09:15:23;5.95;;;1.60;;
44832;SDS011;30569;51.252;9.830;2023-10-08T09:17:51;5.65;;;1.58;;
44832;SDS011;30569;51.252;9.830;2023-10-08T09:20:18;4.85;;;1.23;;
44832;SDS011;30569;51.252;9.830;2023-10-08T09:22:45;5.63;;;1.50;;
44832;SDS011;30569;51.252;9.830;2023-10-08T09:25:15;5.13;;;1.48;;
44832;SDS011;30569;51.252;9.830;2023-10-08T09:27:50;7.03;;;2.42;;
44832;SDS011;30569;51.252;9.830;2023-10-08T09:30:20;4.45;;;1.48;;
44832;SDS011;30569;51.252;9.830;2023-10-08T09:32:47;4.75;;;1.42;;
44832;SDS011;30569;51.252;9.830;2023-10-08T09:35:14;7.03;;;1.55;;
44832;SDS011;30569;51.252;9.830;2023-10-08T09:37:40;5.28;;;1.52;;
44832;SDS011;30569;51.252;9.830;2023-10-08T09:40:07;10.35;;;3.55;;
44832;SDS011;30569;51.252;9.830;2023-10-08T09:42:35;6.43;;;2.05;;
44832;SDS011;30569;51.252;9.830;2023-10-08T09:45:03;6.65;;;3.75;;
44832;SDS011;30569;51.252;9.830;2023-10-08T09:47:34;6.55;;;1.50;;
44832;SDS011;30569;51.252;9.830;2023-10-08T09:50:03;5.85;;;1.52;;
44832;SDS011;30569;51.252;9.830;2023-10-08T09:52:48;6.22;;;2.08;;
44832;SDS011;30569;51.252;9.830;2023-10-08T09:55:21;4.82;;;1.40;;
44832;SDS011;30569;51.252;9.830;2023-10-08T09:57:48;4.65;;;1.40;;
44832;SDS011;30569;51.252;9.830;2023-10-08T10:00:16;5.55;;;1.55;;
44832;SDS011;30569;51.252;9.830;2023-10-08T10:02:44;4.15;;;1.30;;
44832;SDS011;30569;51.252;9.830;2023-10-08T10:05:10;5.43;;;1.58;;
44832;SDS011;30569;51.252;9.830;2023-10-08T10:07:37;3.65;;;1.30;;
44832;SDS011;30569;51.252;9.830;2023-10-08T10:10:24;3.92;;;1.38;;
44832;SDS011;30569;51.252;9.830;2023-10-08T10:13:00;6.95;;;2.65;;
44832;SDS011;30569;51.252;9.830;2023-10-08T10:15:27;5.07;;;1.45;;
44832;SDS011;30569;51.252;9.830;2023-10-08T10:18:07;6.78;;;1.50;;
44832;SDS011;30569;51.252;9.830;2023-10-08T10:20:38;3.83;;;1.23;;
44832;SDS011;30569;51.252;9.830;2023-10-08T10:26:03;7.57;;;1.50;;
44832;SDS011;30569;51.252;9.830;2023-10-08T10:28:29;3.58;;;1.52;;
44832;SDS011;30569;51.252;9.830;2023-10-08T10:30:55;4.38;;;1.75;;
44832;SDS011;30569;51.252;9.830;2023-10-08T10:33:26;6.35;;;1.80;;
44832;SDS011;30569;51.252;9.830;2023-10-08T10:35:55;6.43;;;2.03;;
44832;SDS011;30569;51.252;9.830;2023-10-08T10:38:21;4.85;;;1.70;;
44832;SDS011;30569;51.252;9.830;2023-10-08T10:40:51;6.13;;;1.42;;
44832;SDS011;30569;51.252;9.830;2023-10-08T10:43:23;5.03;;;1.70;;
44832;SDS011;30569;51.252;9.830;2023-10-08T10:45:58;4.15;;;1.50;;
44832;SDS011;30569;51.252;9.830;2023-10-08T10:48:45;6.30;;;2.17;;
44832;SDS011;30569;51.252;9.830;2023-10-08T10:51:22;5.20;;;1.60;;
44832;SDS011;30569;51.252;9.830;2023-10-08T10:53:48;3.95;;;1.40;;
44832;SDS011;30569;51.252;9.830;2023-10-08T10:56:26;4.93;;;1.30;;
44832;SDS011;30569;51.252;9.830;2023-10-08T10:59:01;5.47;;;2.28;;
44832;SDS011;30569;51.252;9.830;2023-10-08T11:01:52;3.78;;;1.35;;
44832;SDS011;30569;51.252;9.830;2023-10-08T11:04:30;4.13;;;1.40;;
44832;SDS011;30569;51.252;9.830;2023-10-08T11:06:56;3.88;;;1.50;;
44832;SDS011;30569;51.252;9.830;2023-10-08T11:09:26;5.32;;;1.40;;
44832;SDS011;30569;51.252;9.830;2023-10-08T11:12:02;4.30;;;1.30;;
44832;SDS011;30569;51.252;9.830;2023-10-08T11:14:36;4.25;;;1.40;;
44832;SDS011;30569;51.252;9.830;2023-10-08T11:17:16;3.47;;;1.60;;
44832;SDS011;30569;51.252;9.830;2023-10-08T11:19:44;5.85;;;1.40;;
44832;SDS011;30569;51.252;9.830;2023-10-08T11:22:13;5.30;;;1.98;;
44832;SDS011;30569;51.252;9.830;2023-10-08T11:24:43;8.02;;;1.70;;
44832;SDS011;30569;51.252;9.830;2023-10-08T11:27:12;5.35;;;1.48;;
44832;SDS011;30569;51.252;9.830;2023-10-08T11:29:48;4.60;;;1.50;;
44832;SDS011;30569;51.252;9.830;2023-10-08T11:32:25;4.55;;;1.50;;
44832;SDS011;30569;51.252;9.830;2023-10-08T11:35:00;5.28;;;1.38;;
44832;SDS011;30569;51.252;9.830;2023-10-08T11:37:44;5.63;;;1.42;;
44832;SDS011;30569;51.252;9.830;2023-10-08T11:40:25;6.40;;;2.33;;
44832;SDS011;30569;51.252;9.830;2023-10-08T11:42:59;3.45;;;1.23;;
44832;SDS011;30569;51.252;9.830;2023-10-08T11:45:28;4.20;;;1.40;;
44832;SDS011;30569;51.252;9.830;2023-10-08T11:48:03;6.05;;;1.60;;
44832;SDS011;30569;51.252;9.830;2023-10-08T11:53:03;5.18;;;1.40;;
44832;SDS011;30569;51.252;9.830;2023-10-08T11:55:31;6.85;;;1.33;;
44832;SDS011;30569;51.252;9.830;2023-10-08T11:58:02;6.45;;;1.45;;
44832;SDS011;30569;51.252;9.830;2023-10-08T12:00:38;5.43;;;1.33;;
44832;SDS011;30569;51.252;9.830;2023-10-08T12:03:11;6.30;;;1.70;;
44832;SDS011;30569;51.252;9.830;2023-10-08T12:05:37;6.00;;;2.20;;
44832;SDS011;30569;51.252;9.830;2023-10-08T12:08:12;6.03;;;2.55;;
44832;SDS011;30569;51.252;9.830;2023-10-08T12:10:45;5.05;;;1.77;;
44832;SDS011;30569;51.252;9.830;2023-10-08T12:13:11;6.32;;;1.80;;
44832;SDS011;30569;51.252;9.830;2023-10-08T12:15:36;10.15;;;4.55;;
44832;SDS011;30569;51.252;9.830;2023-10-08T12:18:06;8.32;;;1.50;;
44832;SDS011;30569;51.252;9.830;2023-10-08T12:20:51;4.82;;;1.75;;
44832;SDS011;30569;51.252;9.830;2023-10-08T12:23:18;5.95;;;1.92;;
44832;SDS011;30569;51.252;9.830;2023-10-08T12:25:54;4.32;;;2.00;;
44832;SDS011;30569;51.252;9.830;2023-10-08T12:28:24;3.95;;;1.35;;
44832;SDS011;30569;51.252;9.830;2023-10-08T12:30:52;5.93;;;2.70;;
44832;SDS011;30569;51.252;9.830;2023-10-08T12:33:19;9.50;;;3.67;;
44832;SDS011;30569;51.252;9.830;2023-10-08T12:35:46;9.23;;;2.38;;
44832;SDS011;30569;51.252;9.830;2023-10-08T12:38:12;7.60;;;4.20;;
44832;SDS011;30569;51.252;9.830;2023-10-08T12:40:39;5.05;;;3.03;;
44832;SDS011;30569;51.252;9.830;2023-10-08T12:43:20;4.97;;;1.90;;
44832;SDS011;30569;51.252;9.830;2023-10-08T12:45:50;4.45;;;1.55;;
44832;SDS011;30569;51.252;9.830;2023-10-08T12:50:52;6.05;;;1.70;;
44832;SDS011;30569;51.252;9.830;2023-10-08T12:53:22;4.25;;;1.50;;
44832;SDS011;30569;51.252;9.830;2023-10-08T12:55:51;4.30;;;1.40;;
44832;SDS011;30569;51.252;9.830;2023-10-08T12:58:23;5.22;;;1.30;;
44832;SDS011;30569;51.252;9.830;2023-10-08T13:00:54;4.47;;;1.23;;
44832;SDS011;30569;51.252;9.830;2023-10-08T13:03:26;4.30;;;1.45;;
44832;SDS011;30569;51.252;9.830;2023-10-08T13:05:55;7.28;;;1.50;;
44832;SDS011;30569;51.252;9.830;2023-10-08T13:08:31;3.55;;;1.20;;
44832;SDS011;30569;51.252;9.830;2023-10-08T13:10:58;5.60;;;1.35;;
44832;SDS011;30569;51.252;9.830;2023-10-08T13:13:27;3.55;;;1.48;;
44832;SDS011;30569;51.252;9.830;2023-10-08T13:15:54;7.35;;;1.90;;
44832;SDS011;30569;51.252;9.830;2023-10-08T13:18:24;4.13;;;1.50;;
44832;SDS011;30569;51.252;9.830;2023-10-08T13:20:52;6.05;;;1.60;;
44832;SDS011;30569;51.252;9.830;2023-10-08T13:23:18;4.30;;;1.60;;
44832;SDS011;30569;51.252;9.830;2023-10-08T13:25:49;3.90;;;1.38;;
44832;SDS011;30569;51.252;9.830;2023-10-08T13:28:21;4.70;;;1.50;;
44832;SDS011;30569;51.252;9.830;2023-10-08T13:30:51;5.40;;;1.55;;
44832;SDS011;30569;51.252;9.830;2023-10-08T13:33:17;5.03;;;1.40;;
44832;SDS011;30569;51.252;9.830;2023-10-08T13:35:50;4.43;;;1.45;;
44832;SDS011;30569;51.252;9.830;2023-10-08T13:38:19;4.45;;;1.63;;
44832;SDS011;30569;51.252;9.830;2023-10-08T13:40:54;5.10;;;1.42;;
44832;SDS011;30569;51.252;9.830;2023-10-08T13:43:29;5.18;;;1.60;;
44832;SDS011;30569;51.252;9.830;2023-10-08T13:46:02;3.85;;;1.40;;
44832;SDS011;30569;51.252;9.830;2023-10-08T13:48:34;4.75;;;1.30;;
44832;SDS011;30569;51.252;9.830;2023-10-08T13:51:01;5.20;;;1.70;;
44832;SDS011;30569;51.252;9.830;2023-10-08T13:53:29;4.03;;;1.30;;
44832;SDS011;30569;51.252;9.830;2023-10-08T13:55:56;6.15;;;1.90;;
44832;SDS011;30569;51.252;9.830;2023-10-08T13:58:25;4.45;;;1.58;;
44832;SDS011;30569;51.252;9.830;2023-10-08T14:00:53;4.78;;;1.77;;
44832;SDS011;30569;51.252;9.830;2023-10-08T14:03:19;3.95;;;1.38;;
44832;SDS011;30569;51.252;9.830;2023-10-08T14:05:47;3.65;;;1.30;;
44832;SDS011;30569;51.252;9.830;2023-10-08T14:08:19;4.57;;;1.40;;
44832;SDS011;30569;51.252;9.830;2023-10-08T14:10:45;4.60;;;1.30;;
44832;SDS011;30569;51.252;9.830;2023-10-08T14:13:13;3.85;;;1.20;;
44832;SDS011;30569;51.252;9.830;2023-10-08T14:15:39;4.93;;;1.35;;
44832;SDS011;30569;51.252;9.830;2023-10-08T14:18:11;5.82;;;1.38;;
44832;SDS011;30569;51.252;9.830;2023-10-08T14:20:41;3.53;;;1.15;;
44832;SDS011;30569;51.252;9.830;2023-10-08T14:23:08;5.03;;;1.30;;
44832;SDS011;30569;51.252;9.830;2023-10-08T14:25:33;3.85;;;1.35;;
44832;SDS011;30569;51.252;9.830;2023-10-08T14:28:07;3.30;;;1.17;;
44832;SDS011;30569;51.252;9.830;2023-10-08T14:30:33;3.60;;;1.73;;
44832;SDS011;30569;51.252;9.830;2023-10-08T14:33:06;3.03;;;1.20;;
44832;SDS011;30569;51.252;9.830;2023-10-08T14:35:34;3.80;;;1.42;;
44832;SDS011;30569;51.252;9.830;2023-10-08T14:38:18;3.38;;;1.38;;
44832;SDS011;30569;51.252;9.830;2023-10-08T14:41:02;3.22;;;1.30;;
44832;SDS011;30569;51.252;9.830;2023-10-08T14:46:13;2.88;;;1.20;;
44832;SDS011;30569;51.252;9.830;2023-10-08T14:48:40;3.92;;;1.30;;
44832;SDS011;30569;51.252;9.830;2023-10-08T14:51:05;3.33;;;1.33;;
44832;SDS011;30569;51.252;9.830;2023-10-08T14:53:32;4.00;;;1.40;;
44832;SDS011;30569;51.252;9.830;2023-10-08T14:55:59;5.32;;;1.45;;
44832;SDS011;30569;51.252;9.830;2023-10-08T14:58:28;4.43;;;1.35;;
44832;SDS011;30569;51.252;9.830;2023-10-08T15:00:54;3.72;;;1.42;;
44832;SDS011;30569;51.252;9.830;2023-10-08T15:03:20;3.72;;;1.45;;
44832;SDS011;30569;51.252;9.830;2023-10-08T15:05:46;4.43;;;1.70;;
44832;SDS011;30569;51.252;9.830;2023-10-08T15:08:12;6.13;;;2.30;;
44832;SDS011;30569;51.252;9.830;2023-10-08T15:10:39;3.88;;;1.40;;
44832;SDS011;30569;51.252;9.830;2023-10-08T15:13:06;4.78;;;1.55;;
44832;SDS011;30569;51.252;9.830;2023-10-08T15:15:32;4.88;;;1.50;;
44832;SDS011;30569;51.252;9.830;2023-10-08T15:17:59;4.07;;;1.58;;
44832;SDS011;30569;51.252;9.830;2023-10-08T15:20:27;5.70;;;1.52;;
44832;SDS011;30569;51.252;9.830;2023-10-08T15:22:57;5.13;;;1.77;;
44832;SDS011;30569;51.252;9.830;2023-10-08T15:25:22;3.00;;;1.30;;
44832;SDS011;30569;51.252;9.830;2023-10-08T15:27:48;6.82;;;1.60;;